createdAt,value
2022-12-19T00:01:35.391Z,2.11
2022-12-19T00:04:07.814Z,2.13
2022-12-19T00:06:35.007Z,2.13
2022-12-19T00:09:01.549Z,2.16
2022-12-19T00:11:29.267Z,2.16
2022-12-19T00:13:55.987Z,2.18
2022-12-19T00:16:24.967Z,2.20
2022-12-19T00:18:55.449Z,2.24
2022-12-19T00:21:25.206Z,2.24
2022-12-19T00:23:52.486Z,2.25
2022-12-19T00:26:22.132Z,2.30
2022-12-19T00:28:52.191Z,2.31
2022-12-19T00:31:19.928Z,2.31
2022-12-19T00:33:47.408Z,2.30
2022-12-19T00:36:22.512Z,2.35
2022-12-19T00:38:51.476Z,2.39
2022-12-19T00:41:29.534Z,2.42
2022-12-19T00:44:00.842Z,2.39
2022-12-19T00:46:28.779Z,2.40
2022-12-19T00:48:55.724Z,2.41
2022-12-19T00:51:25.530Z,2.42
2022-12-19T00:53:53.599Z,2.42
2022-12-19T00:56:27.107Z,2.43
2022-12-19T00:58:54.774Z,2.42
2022-12-19T01:01:24.684Z,2.46
2022-12-19T01:04:26.489Z,2.45
2022-12-19T01:06:37.853Z,2.46
2022-12-19T01:09:06.927Z,2.45
2022-12-19T01:11:52.211Z,2.49
2022-12-19T01:14:22.714Z,2.47
2022-12-19T01:16:50.221Z,2.54
2022-12-19T01:19:16.734Z,2.53
2022-12-19T01:21:43.347Z,2.54
2022-12-19T01:24:10.446Z,2.52
2022-12-19T01:26:37.488Z,2.54
2022-12-19T01:29:04.902Z,2.58
2022-12-19T01:31:32.570Z,2.58
2022-12-19T01:34:00.513Z,2.64
2022-12-19T01:36:28.003Z,2.67
2022-12-19T01:38:58.334Z,2.71
2022-12-19T01:41:25.428Z,2.76
2022-12-19T01:44:01.405Z,2.81
2022-12-19T01:46:38.356Z,2.84
2022-12-19T01:49:10.678Z,2.91
2022-12-19T01:51:46.979Z,2.94
2022-12-19T01:54:34.946Z,3.05
2022-12-19T01:57:04.500Z,3.08
2022-12-19T01:59:52.716Z,3.08
2022-12-19T02:02:33.287Z,3.12
2022-12-19T02:05:01.590Z,3.09
2022-12-19T02:07:28.448Z,3.19
2022-12-19T02:09:57.648Z,3.24
2022-12-19T02:12:26.384Z,3.25
2022-12-19T02:14:58.013Z,3.29
2022-12-19T02:17:38.824Z,3.34
2022-12-19T02:20:40.417Z,3.40
2022-12-19T02:23:50.011Z,3.40
2022-12-19T02:26:34.759Z,3.41
2022-12-19T02:29:19.642Z,3.44
2022-12-19T02:32:06.271Z,3.50
2022-12-19T02:34:49.712Z,3.59
2022-12-19T02:37:41.351Z,3.63
2022-12-19T02:40:19.523Z,3.65
2022-12-19T02:42:50.447Z,3.65
2022-12-19T02:45:22.708Z,3.71
2022-12-19T02:47:57.542Z,3.74
2022-12-19T02:50:25.921Z,3.79
2022-12-19T02:52:52.357Z,3.81
2022-12-19T02:55:23.522Z,3.86
2022-12-19T02:58:13.364Z,3.95
2022-12-19T03:00:54.374Z,4.02
2022-12-19T03:03:29.173Z,4.10
2022-12-19T03:06:01.289Z,4.09
2022-12-19T03:08:33.830Z,4.08
2022-12-19T03:11:07.715Z,4.10
2022-12-19T03:13:39.121Z,4.15
2022-12-19T03:16:09.205Z,4.19
2022-12-19T03:18:36.220Z,4.19
2022-12-19T03:21:19.484Z,4.18
2022-12-19T03:23:47.180Z,4.24
2022-12-19T03:26:19.778Z,4.27
2022-12-19T03:28:52.683Z,4.28
2022-12-19T03:31:23.094Z,4.28
2022-12-19T03:33:55.732Z,4.31
2022-12-19T03:36:28.857Z,4.28
2022-12-19T03:38:57.105Z,4.29
2022-12-19T03:41:44.903Z,4.28
2022-12-19T03:44:14.124Z,4.31
2022-12-19T03:46:46.033Z,4.34
2022-12-19T03:49:13.397Z,4.39
2022-12-19T03:52:31.286Z,4.46
2022-12-19T03:55:36.029Z,4.54
2022-12-19T03:58:10.487Z,4.56
2022-12-19T04:00:42.992Z,4.57
2022-12-19T04:03:11.105Z,4.56
2022-12-19T04:05:38.660Z,4.55
2022-12-19T04:08:08.163Z,4.59
2022-12-19T04:10:44.489Z,4.65
2022-12-19T04:13:16.241Z,4.66
2022-12-19T04:15:54.113Z,4.74
2022-12-19T04:18:21.421Z,4.72
2022-12-19T04:20:58.263Z,4.77
2022-12-19T04:23:40.048Z,4.79
2022-12-19T04:26:08.573Z,4.78
2022-12-19T04:28:42.349Z,4.81
2022-12-19T04:31:13.470Z,4.87
2022-12-19T04:33:39.949Z,4.92
2022-12-19T04:36:06.774Z,5.02
2022-12-19T04:38:33.443Z,5.08
2022-12-19T04:41:00.390Z,5.11
2022-12-19T04:43:26.946Z,5.12
2022-12-19T04:45:57.360Z,5.17
2022-12-19T04:48:25.053Z,5.21
2022-12-19T04:50:51.687Z,5.20
2022-12-19T04:53:18.289Z,5.17
2022-12-19T04:55:44.744Z,5.17
2022-12-19T04:58:11.427Z,5.13
2022-12-19T05:00:38.505Z,5.13
2022-12-19T05:03:05.094Z,5.10
2022-12-19T05:05:31.575Z,5.11
2022-12-19T05:07:58.046Z,5.11
2022-12-19T05:10:24.567Z,5.11
2022-12-19T05:12:51.043Z,5.08
2022-12-19T05:15:17.499Z,5.09
2022-12-19T05:17:43.990Z,5.09
2022-12-19T05:20:10.955Z,5.06
2022-12-19T05:22:37.407Z,5.09
2022-12-19T05:25:04.192Z,5.11
2022-12-19T05:27:30.675Z,5.17
2022-12-19T05:29:57.183Z,5.16
2022-12-19T05:32:23.656Z,5.22
2022-12-19T05:34:50.076Z,5.22
2022-12-19T05:37:16.524Z,5.23
2022-12-19T05:39:42.989Z,5.28
2022-12-19T05:42:12.297Z,5.34
2022-12-19T05:44:39.413Z,5.45
2022-12-19T05:47:06.001Z,5.50
2022-12-19T05:49:32.429Z,5.49
2022-12-19T05:51:58.882Z,5.54
2022-12-19T05:54:26.013Z,5.56
2022-12-19T05:56:52.444Z,5.52
2022-12-19T05:59:18.854Z,5.58
2022-12-19T06:01:45.444Z,5.57
2022-12-19T06:04:11.946Z,5.61
2022-12-19T06:06:38.347Z,5.66
2022-12-19T06:09:04.868Z,5.67
2022-12-19T06:11:31.301Z,5.71
2022-12-19T06:13:57.730Z,5.77
2022-12-19T06:16:24.421Z,5.82
2022-12-19T06:18:51.111Z,5.81
2022-12-19T06:21:22.319Z,5.80
2022-12-19T06:23:49.103Z,5.86
2022-12-19T06:26:19.766Z,5.88
2022-12-19T06:28:48.331Z,5.88
2022-12-19T06:31:15.406Z,5.90
2022-12-19T06:33:41.926Z,5.90
2022-12-19T06:36:21.785Z,5.97
2022-12-19T06:38:49.332Z,5.94
2022-12-19T06:41:35.599Z,5.99
2022-12-19T06:44:04.891Z,6.01
2022-12-19T06:46:31.973Z,6.01
2022-12-19T06:48:58.520Z,6.04
2022-12-19T06:51:25.211Z,6.03
2022-12-19T06:53:52.246Z,6.07
2022-12-19T06:56:18.977Z,6.11
2022-12-19T06:58:46.165Z,6.11
2022-12-19T07:01:30.222Z,6.16
2022-12-19T07:03:57.080Z,6.21
2022-12-19T07:06:23.873Z,6.26
2022-12-19T07:08:50.432Z,6.31
2022-12-19T07:11:16.876Z,6.34
2022-12-19T07:13:43.332Z,6.41
2022-12-19T07:16:10.251Z,6.50
2022-12-19T07:18:39.202Z,6.53
2022-12-19T07:21:08.596Z,6.54
2022-12-19T07:23:35.422Z,6.57
2022-12-19T07:26:01.974Z,6.58
2022-12-19T07:28:28.432Z,6.57
2022-12-19T07:30:55.068Z,6.63
2022-12-19T07:33:22.199Z,6.60
2022-12-19T07:35:48.794Z,6.66
2022-12-19T07:38:15.291Z,6.64
2022-12-19T07:40:41.822Z,6.63
2022-12-19T07:43:08.378Z,6.69
2022-12-19T07:45:37.983Z,6.71
2022-12-19T07:48:06.332Z,6.76
2022-12-19T07:50:34.075Z,6.74
2022-12-19T07:53:00.707Z,6.79
2022-12-19T07:55:27.779Z,6.91
2022-12-19T07:57:55.513Z,6.86
2022-12-19T08:00:22.587Z,6.88
2022-12-19T08:02:49.410Z,6.93
2022-12-19T08:05:16.170Z,6.95
2022-12-19T08:07:42.631Z,7.00
2022-12-19T08:10:11.437Z,7.01
2022-12-19T08:12:38.207Z,7.07
2022-12-19T08:15:05.843Z,7.11
2022-12-19T08:17:34.648Z,7.17
2022-12-19T08:20:01.246Z,7.17
2022-12-19T08:22:29.701Z,7.23
2022-12-19T08:24:57.455Z,7.23
2022-12-19T08:27:24.149Z,7.22
2022-12-19T08:29:50.700Z,7.20
2022-12-19T08:32:20.959Z,7.17
2022-12-19T08:34:49.232Z,7.20
2022-12-19T08:37:15.803Z,7.21
2022-12-19T08:39:42.269Z,7.21
2022-12-19T08:42:08.755Z,7.18
2022-12-19T08:44:35.164Z,7.17
2022-12-19T08:47:02.659Z,7.24
2022-12-19T08:49:29.291Z,7.24
2022-12-19T08:51:55.848Z,7.21
2022-12-19T08:54:22.303Z,7.19
2022-12-19T08:56:48.816Z,7.23
2022-12-19T08:59:30.349Z,7.21
2022-12-19T09:01:59.834Z,7.28
2022-12-19T09:05:58.292Z,7.33
2022-12-19T09:07:15.586Z,7.31
2022-12-19T09:09:42.969Z,7.36
2022-12-19T09:12:09.427Z,7.34
2022-12-19T09:14:36.346Z,7.36
2022-12-19T09:17:03.813Z,7.35
2022-12-19T09:19:32.100Z,7.42
2022-12-19T09:21:58.989Z,7.45
2022-12-19T09:24:25.551Z,7.43
2022-12-19T09:26:52.131Z,7.49
2022-12-19T09:29:20.424Z,7.55
2022-12-19T09:31:55.898Z,7.55
2022-12-19T09:34:24.332Z,7.60
2022-12-19T09:36:59.558Z,7.68
2022-12-19T09:39:26.028Z,7.67
2022-12-19T09:42:07.469Z,7.69
2022-12-19T09:44:49.072Z,7.69
2022-12-19T09:47:36.763Z,7.71
2022-12-19T09:50:15.140Z,7.82
2022-12-19T09:52:56.128Z,7.81
2022-12-19T09:55:28.309Z,7.88
2022-12-19T09:57:57.732Z,7.94
2022-12-19T10:00:34.662Z,7.98
2022-12-19T10:03:16.166Z,7.95
2022-12-19T10:06:29.484Z,8.03
2022-12-19T10:09:45.351Z,8.03
2022-12-19T10:12:40.457Z,8.13
2022-12-19T10:14:55.894Z,8.18
2022-12-19T10:17:31.363Z,8.20
2022-12-19T10:20:13.200Z,8.23
2022-12-19T10:22:54.922Z,8.29
2022-12-19T10:25:39.683Z,8.31
2022-12-19T10:28:11.906Z,8.38
2022-12-19T10:31:21.858Z,8.37
2022-12-19T10:34:06.948Z,8.38
2022-12-19T10:39:33.719Z,8.42
2022-12-19T10:42:15.378Z,8.38
2022-12-19T10:44:43.913Z,8.50
2022-12-19T10:47:16.112Z,8.51
2022-12-19T10:49:43.037Z,8.51
2022-12-19T10:52:12.101Z,8.52
2022-12-19T10:54:40.012Z,8.65
2022-12-19T10:57:21.620Z,8.66
2022-12-19T11:00:15.165Z,8.73
2022-12-19T11:02:47.040Z,8.83
2022-12-19T11:05:51.221Z,8.83
2022-12-19T11:08:33.536Z,8.89
2022-12-19T11:14:23.309Z,8.93
2022-12-19T11:18:44.257Z,8.93
2022-12-19T11:23:31.390Z,8.97
2022-12-19T11:29:17.731Z,8.98
2022-12-19T11:29:45.690Z,8.96
2022-12-19T11:30:35.212Z,9.01
2022-12-19T11:30:38.373Z,9.07
2022-12-19T11:34:23.683Z,9.08
2022-12-19T11:36:53.010Z,9.13
2022-12-19T11:39:41.739Z,9.11
2022-12-19T11:42:14.264Z,9.14
2022-12-19T11:44:49.132Z,9.24
2022-12-19T11:47:54.302Z,9.25
2022-12-19T11:50:28.512Z,9.28
2022-12-19T11:53:18.819Z,9.28
2022-12-19T11:55:51.429Z,9.26
2022-12-19T11:58:18.043Z,9.27
2022-12-19T12:00:58.452Z,9.29
2022-12-19T12:04:01.046Z,9.32
2022-12-19T12:06:34.337Z,9.31
2022-12-19T12:14:08.009Z,9.33
2022-12-19T12:19:35.526Z,9.36
2022-12-19T12:27:29.995Z,9.40
2022-12-19T12:30:57.175Z,9.41
2022-12-19T12:31:12.278Z,9.49
2022-12-19T12:31:19.343Z,9.42
2022-12-19T12:31:39.618Z,9.48
2022-12-19T12:35:40.501Z,9.64
2022-12-19T12:40:45.663Z,9.68
2022-12-19T12:43:36.344Z,9.73
2022-12-19T12:46:14.545Z,9.73
2022-12-19T12:48:50.544Z,9.78
2022-12-19T12:51:18.528Z,9.71
2022-12-19T12:53:47.575Z,9.76
2022-12-19T12:56:17.725Z,9.85
2022-12-19T12:58:47.835Z,9.94
2022-12-19T13:01:15.169Z,9.96
2022-12-19T13:03:43.162Z,10.07
2022-12-19T13:06:25.878Z,10.24
2022-12-19T13:09:01.956Z,10.43
2022-12-19T13:11:47.030Z,10.41
2022-12-19T13:14:32.393Z,10.24
2022-12-19T13:16:58.931Z,10.29
2022-12-19T13:19:37.435Z,10.24
2022-12-19T13:22:03.887Z,10.25
2022-12-19T13:24:50.079Z,10.26
2022-12-19T13:27:19.324Z,10.29
2022-12-19T13:30:00.980Z,10.22
2022-12-19T13:32:33.515Z,10.26
2022-12-19T13:35:55.056Z,10.29
2022-12-19T13:39:57.819Z,10.28
2022-12-19T13:40:57.446Z,10.31
2022-12-19T13:43:48.865Z,10.35
2022-12-19T13:46:24.378Z,10.42
2022-12-19T13:48:56.714Z,10.50
2022-12-19T13:51:23.228Z,10.60
2022-12-19T13:53:59.240Z,10.77
2022-12-19T13:56:30.649Z,10.92
2022-12-19T13:59:04.280Z,10.77
2022-12-19T14:01:33.922Z,10.67
2022-12-19T14:04:13.413Z,10.55
2022-12-19T14:06:47.231Z,10.58
2022-12-19T14:11:27.866Z,10.45
2022-12-19T14:13:57.406Z,10.39
2022-12-19T14:15:44.238Z,10.34
2022-12-19T14:18:45.253Z,10.22
2022-12-19T14:22:08.754Z,10.22
2022-12-19T14:24:16.080Z,10.16
2022-12-19T14:28:22.351Z,10.14
2022-12-19T14:30:30.382Z,10.15
2022-12-19T14:33:44.778Z,10.12
2022-12-19T14:36:09.090Z,10.12
2022-12-19T14:39:25.838Z,10.10
2022-12-19T14:42:01.871Z,10.07
2022-12-19T14:52:25.201Z,10.03
2022-12-19T14:52:35.958Z,10.02
2022-12-19T14:54:04.907Z,9.99
2022-12-19T14:54:50.452Z,9.97
2022-12-19T14:56:58.429Z,9.98
2022-12-19T14:59:05.496Z,10.04
2022-12-19T15:01:34.422Z,9.99
2022-12-19T15:04:50.456Z,10.00
2022-12-19T15:07:08.033Z,9.94
2022-12-19T15:11:04.090Z,9.96
2022-12-19T15:14:49.481Z,9.95
2022-12-19T15:16:01.771Z,9.92
2022-12-19T15:18:28.360Z,9.94
2022-12-19T15:20:57.461Z,9.91
2022-12-19T15:23:24.687Z,9.95
2022-12-19T15:26:08.687Z,9.94
2022-12-19T15:28:41.263Z,9.92
2022-12-19T15:31:17.889Z,9.92
2022-12-19T15:34:14.196Z,9.91
2022-12-19T15:36:30.999Z,9.94
2022-12-19T15:38:58.267Z,9.97
2022-12-19T15:41:25.270Z,10.01
2022-12-19T15:44:08.031Z,9.97
2022-12-19T15:46:34.879Z,9.99
2022-12-19T15:49:02.093Z,9.97
2022-12-19T15:51:28.558Z,9.96
2022-12-19T15:54:08.944Z,10.00
2022-12-19T15:56:51.977Z,9.92
2022-12-19T15:59:37.469Z,9.87
2022-12-19T16:02:13.281Z,9.90
2022-12-19T16:04:39.961Z,9.97
2022-12-19T16:07:15.125Z,9.95
2022-12-19T16:09:42.696Z,9.99
2022-12-19T16:12:14.202Z,10.00
2022-12-19T16:14:40.977Z,10.00
2022-12-19T16:17:14.927Z,9.97
2022-12-19T16:19:41.497Z,10.01
2022-12-19T16:22:24.306Z,10.07
2022-12-19T16:24:52.175Z,10.01
2022-12-19T16:27:25.727Z,10.05
2022-12-19T16:29:54.038Z,10.08
2022-12-19T16:32:24.038Z,10.07
2022-12-19T16:34:51.751Z,10.09
2022-12-19T16:37:18.271Z,10.08
2022-12-19T16:39:44.829Z,10.07
2022-12-19T16:42:18.828Z,10.00
2022-12-19T16:44:48.019Z,10.04
2022-12-19T16:47:17.176Z,10.05
2022-12-19T16:49:44.719Z,10.11
2022-12-19T16:52:11.683Z,10.15
2022-12-19T16:54:38.170Z,10.17
2022-12-19T16:57:07.135Z,10.16
2022-12-19T16:59:37.528Z,10.18
2022-12-19T17:02:32.179Z,10.17
2022-12-19T17:04:58.786Z,10.23
2022-12-19T17:07:32.305Z,10.21
2022-12-19T17:09:58.891Z,10.26
2022-12-19T17:12:27.550Z,10.28
2022-12-19T17:14:54.350Z,10.24
2022-12-19T17:17:20.945Z,10.22
2022-12-19T17:19:47.432Z,10.30
2022-12-19T17:22:16.620Z,10.23
2022-12-19T17:24:45.720Z,10.31
2022-12-19T17:27:13.072Z,10.30
2022-12-19T17:29:39.673Z,10.30
2022-12-19T17:32:09.087Z,10.33
2022-12-19T17:34:35.989Z,10.36
2022-12-19T17:37:05.166Z,10.33
2022-12-19T17:42:44.714Z,10.38
2022-12-19T17:45:11.345Z,10.39
2022-12-19T17:47:37.893Z,10.39
2022-12-19T17:50:06.123Z,10.39
2022-12-19T17:52:35.810Z,10.41
2022-12-19T17:55:26.459Z,10.39
2022-12-19T17:57:53.411Z,10.41
2022-12-19T18:00:28.423Z,10.43
2022-12-19T18:02:57.196Z,10.40
2022-12-19T18:05:28.271Z,10.35
2022-12-19T18:07:55.367Z,10.42
2022-12-19T18:10:25.827Z,10.39
2022-12-19T18:12:53.296Z,10.39
2022-12-19T18:15:21.395Z,10.41
2022-12-19T18:17:50.365Z,10.25
2022-12-19T18:20:32.687Z,10.38
2022-12-19T18:23:00.742Z,10.41
2022-12-19T18:25:31.067Z,10.40
2022-12-19T18:27:58.591Z,10.38
2022-12-19T18:30:25.769Z,10.38
2022-12-19T18:33:01.273Z,10.25
2022-12-19T18:35:43.783Z,10.36
2022-12-19T18:38:16.357Z,10.43
2022-12-19T18:40:43.475Z,10.37
2022-12-19T18:43:13.952Z,10.37
2022-12-19T18:45:43.413Z,10.40
2022-12-19T18:48:30.668Z,10.36
2022-12-19T18:50:58.419Z,10.41
2022-12-19T18:53:35.331Z,10.37
2022-12-19T18:56:05.525Z,10.37
2022-12-19T18:58:33.073Z,10.37
2022-12-19T19:01:01.479Z,10.37
2022-12-19T19:03:31.534Z,10.42
2022-12-19T19:05:58.215Z,10.38
2022-12-19T19:08:28.362Z,10.41
2022-12-19T19:10:55.956Z,10.43
2022-12-19T19:13:24.590Z,10.46
2022-12-19T19:15:53.983Z,10.46
2022-12-19T19:18:25.825Z,10.45
2022-12-19T19:21:00.486Z,10.46
2022-12-19T19:23:29.579Z,10.49
2022-12-19T19:25:56.020Z,10.57
2022-12-19T19:28:22.476Z,10.57
2022-12-19T19:30:50.567Z,10.56
2022-12-19T19:33:23.873Z,10.63
2022-12-19T19:35:56.261Z,10.59
2022-12-19T19:38:23.584Z,10.57
2022-12-19T19:40:50.565Z,10.57
2022-12-19T19:43:17.075Z,10.65
2022-12-19T19:45:43.855Z,10.61
2022-12-19T19:48:10.883Z,10.61
2022-12-19T19:50:37.560Z,10.62
2022-12-19T19:53:04.256Z,10.64
2022-12-19T19:55:31.376Z,10.68
2022-12-19T19:57:57.833Z,10.71
2022-12-19T20:00:24.820Z,10.62
2022-12-19T20:02:51.556Z,10.76
2022-12-19T20:05:18.616Z,10.79
2022-12-19T20:07:45.135Z,10.80
2022-12-19T20:10:12.240Z,10.78
2022-12-19T20:12:38.859Z,10.88
2022-12-19T20:15:06.255Z,10.86
2022-12-19T20:17:32.697Z,10.91
2022-12-19T20:19:59.256Z,10.92
2022-12-19T20:22:25.888Z,10.91
2022-12-19T20:24:52.334Z,10.95
2022-12-19T20:27:18.777Z,10.99
2022-12-19T20:29:45.330Z,11.03
2022-12-19T20:32:12.841Z,11.01
2022-12-19T20:34:39.283Z,11.00
2022-12-19T20:37:05.860Z,10.96
2022-12-19T20:39:33.739Z,11.01
2022-12-19T20:42:00.247Z,10.99
2022-12-19T20:44:26.745Z,11.01
2022-12-19T20:46:53.362Z,11.04
2022-12-19T20:49:19.854Z,11.02
2022-12-19T20:51:47.836Z,11.09
2022-12-19T20:54:15.685Z,11.11
2022-12-19T20:56:42.963Z,11.10
2022-12-19T20:59:10.234Z,11.11
2022-12-19T21:01:37.764Z,11.10
2022-12-19T21:04:05.347Z,11.10
2022-12-19T21:06:32.391Z,11.15
2022-12-19T21:08:58.991Z,11.23
2022-12-19T21:11:26.448Z,11.25
2022-12-19T21:13:53.387Z,11.31
2022-12-19T21:16:21.740Z,11.29
2022-12-19T21:18:49.935Z,11.31
2022-12-19T21:21:22.700Z,11.32
2022-12-19T21:23:50.141Z,11.37
2022-12-19T21:26:16.996Z,11.39
2022-12-19T21:28:44.628Z,11.40
2022-12-19T21:31:25.067Z,11.48
2022-12-19T21:33:55.855Z,11.47
2022-12-19T21:36:24.173Z,11.49
2022-12-19T21:38:53.517Z,11.51
2022-12-19T21:41:20.986Z,11.51
2022-12-19T21:43:51.581Z,11.54
2022-12-19T21:46:19.349Z,11.51
2022-12-19T21:48:49.644Z,11.59
2022-12-19T21:51:18.623Z,11.54
2022-12-19T21:53:45.914Z,11.62
2022-12-19T21:56:15.111Z,11.61
2022-12-19T21:58:41.628Z,11.63
2022-12-19T22:01:11.349Z,11.59
2022-12-19T22:03:39.024Z,11.57
2022-12-19T22:06:08.672Z,11.60
2022-12-19T22:08:36.422Z,11.52
2022-12-19T22:11:03.782Z,11.54
2022-12-19T22:13:30.716Z,11.54
2022-12-19T22:16:02.560Z,11.57
2022-12-19T22:18:29.261Z,11.54
2022-12-19T22:20:59.770Z,11.52
2022-12-19T22:23:26.706Z,11.43
2022-12-19T22:26:10.891Z,11.43
2022-12-19T22:28:39.638Z,11.49
2022-12-19T22:31:26.278Z,11.43
2022-12-19T22:33:55.969Z,11.47
2022-12-19T22:36:28.006Z,11.51
2022-12-19T22:38:58.723Z,11.55
2022-12-19T22:41:26.263Z,11.66
2022-12-19T22:43:54.199Z,11.67
2022-12-19T22:46:26.446Z,11.67
2022-12-19T22:48:56.232Z,11.67
2022-12-19T22:51:23.003Z,11.72
2022-12-19T22:53:49.761Z,11.70
2022-12-19T22:56:18.771Z,11.69
2022-12-19T22:58:48.306Z,11.74
2022-12-19T23:01:20.921Z,11.66
2022-12-19T23:03:50.238Z,11.66
2022-12-19T23:06:18.368Z,11.72
2022-12-19T23:08:45.572Z,11.68
2022-12-19T23:11:17.146Z,11.63
2022-12-19T23:13:44.616Z,11.72
2022-12-19T23:16:11.293Z,11.68
2022-12-19T23:18:38.540Z,11.70
2022-12-19T23:21:09.243Z,11.69
2022-12-19T23:23:42.396Z,11.65
2022-12-19T23:26:16.000Z,11.62
2022-12-19T23:29:03.477Z,11.63
2022-12-19T23:31:30.822Z,11.55
2022-12-19T23:33:58.438Z,11.56
2022-12-19T23:37:09.021Z,11.60
2022-12-19T23:39:12.811Z,11.55
2022-12-19T23:41:39.681Z,11.65
2022-12-19T23:44:06.311Z,11.59
2022-12-19T23:46:32.797Z,11.60
2022-12-19T23:48:59.497Z,11.72
2022-12-19T23:51:27.539Z,11.82
2022-12-19T23:53:55.697Z,11.78
2022-12-19T23:56:24.959Z,11.84
2022-12-19T23:58:52.046Z,11.91
